Latest Weather Observations for Low Rocky Point

IDT60801

Issued at 11:01 am EST Saturday 5 September 2015 (issued every 30 minutes, with the page automatically refreshed every 10 minutes)

About weather observations | Map of weather stations | Latest weather observations for TAS | Other Formats
Station Details ID: 097080 Name: LOW ROCKY POINT Lat: -42.98 Lon: 145.50 Height: 34.0 m
Data from the previous 72 hours. | See also: Recent months at Low Rocky Point
Date/Time
EST
Temp
°C
App
Temp
°C
Dew
Point
Rel
Hum
%
Delta-T
°C
Wind Press
QNH
hPa
Press
MSL
hPa
Rain
since 9 am
mm
Dir
 
Spd
km/h
Gust
km/h
Spd
kts
Gust
kts
05/11:00am 11.5 8.7 8.5 82 1.5 S 13 19 7 10 1022.7 1022.7 0.0
05/10:30am 11.5 9.2 9.1 85 1.2 SSE 11 15 6 8 1022.7 1022.7 0.0
05/10:00am 10.9 8.2 9.0 88 0.9 SSE 13 17 7 9 1022.8 1022.8 0.0
05/09:30am 9.5 6.2 7.9 90 0.8 SSE 15 17 8 9 1022.8 1022.8 0.0
05/09:00am 9.0 6.0 7.6 91 0.7 S 13 19 7 10 1022.7 1022.7 2.4
05/08:30am 9.0 6.8 7.8 92 0.6 SSW 9 13 5 7 1022.5 1022.5 2.4
05/08:00am 7.3 4.7 5.9 91 0.6 SSW 9 13 5 7 1022.3 1022.3 2.4
05/07:30am 7.4 4.4 6.2 92 0.5 S 11 15 6 8 1021.8 1021.8 2.4
05/07:00am 7.3 3.9 5.9 91 0.6 SSW 13 17 7 9 1021.5 1021.5 2.4
05/06:30am 7.5 3.4 6.1 91 0.6 S 17 20 9 11 1021.1 1021.1 2.4
05/06:00am 7.8 3.4 6.4 91 0.6 S 19 24 10 13 1020.7 1020.7 2.4
05/05:30am 7.5 3.7 6.0 90 0.7 S 15 20 8 11 1020.3 1020.3 2.4
05/05:00am 7.7 3.2 6.2 90 0.7 SSW 19 24 10 13 1020.1 1020.1 2.4
05/04:30am 8.1 3.5 6.6 90 0.7 SSW 20 26 11 14 1019.8 1019.8 2.4
05/04:00am 8.5 3.7 7.3 92 0.6 SW 22 30 12 16 1019.3 1019.3 2.4
05/03:30am 8.5 4.1 7.6 94 0.4 SW 20 28 11 15 1019.1 1019.1 2.4
05/03:00am 8.2 3.0 7.4 95 0.4 SW 24 32 13 17 1019.2 1019.2 2.4
05/02:30am 8.1 3.8 7.7 97 0.2 SW 20 26 11 14 1019.4 1019.4 2.4
05/02:00am 8.2 4.9 7.9 98 0.1 SSW 15 24 8 13 1019.6 1019.6 2.4
05/01:30am 8.9 6.2 8.8 99 0.0 WSW 13 19 7 10 1019.6 1019.6 2.2
05/01:00am 8.7 5.2 8.6 99 0.0 WSW 17 22 9 12 1019.5 1019.5 2.2
05/12:30am 8.8 5.3 8.7 99 0.0 WSW 17 24 9 13 1019.4 1019.4 2.0
05/12:00am 8.8 5.3 8.7 99 0.0 WSW 17 24 9 13 1019.2 1019.2 2.0
 
Date/Time
EST
Temp
°C
App
Temp
°C
Dew
Point
Rel
Hum
%
Delta-T
°C
Wind Press
QNH
hPa
Press
MSL
hPa
Rain
since 9 am
mm
Dir
 
Spd
km/h
Gust
km/h
Spd
kts
Gust
kts
04/11:30pm 9.1 3.5 8.8 98 0.1 WSW 28 39 15 21 1019.2 1019.2 2.0
04/11:00pm 9.1 3.1 8.8 98 0.1 W 30 39 16 21 1019.1 1019.1 1.8
04/10:30pm 9.2 2.9 8.9 98 0.1 W 32 44 17 24 1019.0 1019.0 1.8
04/10:00pm 9.3 3.0 9.0 98 0.1 W 32 39 17 21 1019.0 1019.0 1.8
04/09:30pm 9.3 3.0 9.0 98 0.1 W 32 39 17 21 1019.0 1019.0 1.8
04/09:14pm 9.1 2.5 8.6 97 0.2 W 33 43 18 23 1019.0 1019.0 1.4
04/09:00pm 9.4 2.1 8.9 97 0.2 W 37 48 20 26 1018.8 1018.8 1.4
04/08:30pm 9.3 2.4 8.8 97 0.2 WNW 35 43 19 23 1018.6 1018.6 1.4
04/08:00pm 9.3 2.3 8.5 95 0.4 W 35 46 19 25 1018.5 1018.5 1.2
04/07:30pm 9.2 1.7 8.1 93 0.5 WNW 37 48 20 26 1018.6 1018.6 1.0
04/07:00pm 9.1 0.8 7.7 91 0.7 W 41 54 22 29 1018.6 1018.6 1.0
04/06:30pm 9.5 1.6 7.9 90 0.8 W 39 50 21 27 1018.4 1018.4 1.0
04/06:00pm 9.7 2.7 8.5 92 0.6 WNW 35 43 19 23 1018.3 1018.3 1.0
04/05:30pm 9.7 1.5 8.3 91 0.7 WNW 41 48 22 26 1018.3 1018.3 1.0
04/05:00pm 9.6 1.4 8.4 92 0.6 W 41 48 22 26 1018.2 1018.2 1.0
04/04:30pm 9.3 1.5 8.2 93 0.5 WNW 39 50 21 27 1018.1 1018.1 1.0
04/04:00pm 9.5 0.8 7.8 89 0.8 WNW 43 48 23 26 1018.1 1018.1 0.8
04/03:30pm 10.4 3.5 8.7 89 0.8 WNW 35 43 19 23 1018.0 1018.0 0.8
04/03:00pm 10.3 1.8 8.7 90 0.8 WNW 43 50 23 27 1018.0 1018.0 0.8
04/02:30pm 10.5 2.0 8.6 88 0.9 WNW 43 50 23 27 1017.7 1017.7 0.8
04/02:00pm 11.4 3.2 9.8 90 0.8 WNW 43 52 23 28 1017.8 1017.8 0.6
04/01:30pm 10.7 1.9 9.6 93 0.6 WNW 46 54 25 29 1018.0 1018.0 0.6
04/01:00pm 9.9 1.5 9.1 95 0.4 WNW 43 54 23 29 1018.2 1018.2 0.6
04/12:30pm 10.0 2.8 9.1 94 0.4 WNW 37 44 20 24 1018.6 1018.6 0.6
04/12:00pm 10.6 3.0 9.0 90 0.8 NW 39 50 21 27 1018.8 1018.8 0.2
04/11:30am 10.5 2.2 9.3 92 0.6 NW 43 52 23 28 1019.0 1019.0 0.2
04/11:00am 9.7 1.6 8.6 93 0.5 NW 41 50 22 27 1019.4 1019.4 0.2
04/10:30am 9.3 1.0 7.7 90 0.8 NW 41 50 22 27 1019.6 1019.6 0.2
04/10:00am 9.2 0.4 7.3 88 0.9 WNW 43 57 23 31 1019.6 1019.6 0.0
04/09:30am 9.6 1.1 6.9 83 1.3 NW 41 50 22 27 1019.8 1019.8 0.0
04/09:00am 9.6 0.8 7.2 85 1.1 WNW 43 52 23 28 1019.9 1019.9 0.6
04/08:30am 9.1 0.2 7.7 91 0.7 WNW 44 52 24 28 1019.8 1019.8 0.6
04/08:00am 8.4 1.6 7.6 95 0.4 NW 33 43 18 23 1020.1 1020.1 0.6
04/07:30am 7.4 2.0 6.3 93 0.5 NNW 24 32 13 17 1019.9 1019.9 0.2
04/07:22am 7.3 1.1 6.1 92 0.5 NNW 28 46 15 25 1020.1 1020.1 0.2
04/07:00am 7.2 0.0 5.7 90 0.7 NNW 33 46 18 25 1019.8 1019.8 0.2
04/06:30am 6.7 0.6 4.7 87 0.9 N 26 39 14 21 1019.7 1019.7 0.0
04/06:00am 6.8 1.7 4.3 84 1.1 N 20 28 11 15 1019.7 1019.7 0.0
04/05:30am 6.7 0.8 3.7 81 1.3 N 24 46 13 25 1019.9 1019.9 0.0
04/05:27am 7.2 0.6 4.0 80 1.4 NNW 28 46 15 25 1019.9 1019.9 0.0
04/05:00am 8.6 0.2 5.4 80 1.4 NW 39 46 21 25 1019.7 1019.7 0.0
04/04:30am 8.6 0.5 5.2 79 1.5 NW 37 46 20 25 1019.7 1019.7 0.0
04/04:00am 8.9 0.8 5.3 78 1.6 NW 37 46 20 25 1019.8 1019.8 0.0
04/03:30am 8.7 1.3 4.9 77 1.7 NW 33 43 18 23 1020.1 1020.1 0.0
04/03:00am 8.5 0.7 4.7 77 1.7 NW 35 43 19 23 1020.4 1020.4 0.0
04/02:30am 8.7 0.8 4.1 73 2.0 NW 35 44 19 24 1020.5 1020.5 0.0
04/02:00am 8.8 1.3 3.4 69 2.3 WNW 32 41 17 22 1020.9 1020.9 0.0
04/01:30am 8.7 1.4 2.7 66 2.5 NW 30 39 16 21 1021.0 1021.0 0.0
04/01:00am 8.7 2.6 2.5 65 2.6 NW 24 32 13 17 1021.3 1021.3 0.0
04/12:30am 8.4 2.1 1.6 62 2.8 NW 24 32 13 17 1021.5 1021.5 0.0
04/12:00am 8.4 2.2 2.0 64 2.6 WNW 24 30 13 16 1021.6 1021.6 0.0
 
Date/Time
EST
Temp
°C
App
Temp
°C
Dew
Point
Rel
Hum
%
Delta-T
°C
Wind Press
QNH
hPa
Press
MSL
hPa
Rain
since 9 am
mm
Dir
 
Spd
km/h
Gust
km/h
Spd
kts
Gust
kts
03/11:30pm 8.2 1.1 1.6 63 2.7 WNW 28 33 15 18 1021.7 1021.7 0.0
03/11:00pm 8.0 1.3 1.6 64 2.6 WNW 26 30 14 16 1021.8 1021.8 0.0
03/10:30pm 7.8 1.9 1.6 65 2.5 WNW 22 28 12 15 1021.9 1021.9 0.0
03/10:00pm 7.8 2.2 1.4 64 2.6 WNW 20 28 11 15 1021.8 1021.8 0.0
03/09:30pm 7.5 1.9 1.1 64 2.6 WNW 20 26 11 14 1021.7 1021.7 0.0
03/09:00pm 7.2 1.7 0.6 63 2.6 WNW 19 26 10 14 1021.5 1021.5 0.0
03/08:30pm 7.3 2.2 0.7 63 2.6 W 17 20 9 11 1021.3 1021.3 0.0
03/08:00pm 7.5 2.9 1.4 65 2.5 WSW 15 24 8 13 1021.0 1021.0 0.0
03/07:30pm 7.9 3.1 2.8 70 2.1 SW 17 26 9 14 1020.9 1020.9 0.0
03/07:00pm 7.5 4.6 2.8 72 2.0 WSW 7 9 4 5 1020.9 1020.9 0.0
03/06:30pm 7.7 3.3 2.8 71 2.1 WSW 15 20 8 11 1020.8 1020.8 0.0
03/06:00pm 7.8 2.6 2.7 70 2.1 SW 19 26 10 14 1020.3 1020.3 0.0
03/05:30pm 8.3 4.0 3.0 69 2.2 SW 15 20 8 11 1020.0 1020.0 0.0
03/05:00pm 8.3 4.4 3.2 70 2.2 S 13 17 7 9 1019.6 1019.6 0.0
03/04:30pm 8.7 3.6 2.9 67 2.5 S 19 26 10 14 1019.1 1019.1 0.0
03/04:00pm 9.6 5.4 1.5 57 3.4 S 13 17 7 9 1018.8 1018.8 0.0
03/03:30pm 10.5 5.5 1.3 53 3.8 SSW 17 20 9 11 1018.6 1018.6 0.0
03/03:00pm 10.5 5.5 1.1 52 3.9 S 17 24 9 13 1018.3 1018.3 0.0
03/02:30pm 10.5 4.9 1.3 53 3.8 S 20 28 11 15 1018.1 1018.1 0.0
03/02:00pm 10.7 4.8 2.0 55 3.7 SSW 22 30 12 16 1018.1 1018.1 0.0
03/01:30pm 10.8 4.9 3.8 62 3.1 SSW 24 33 13 18 1018.1 1018.1 0.0
03/01:00pm 11.4 6.2 5.5 67 2.7 S 22 32 12 17 1018.0 1018.0 0.0
03/12:30pm 11.4 5.9 6.1 70 2.5 S 24 32 13 17 1018.0 1018.0 0.0
03/12:00pm 11.2 6.2 6.3 72 2.3 SSE 22 33 12 18 1017.8 1017.8 0.0
03/11:30am 10.9 5.4 5.9 71 2.3 S 24 32 13 17 1017.8 1017.8 0.0
03/11:00am 10.5 4.6 5.9 73 2.1 S 26 35 14 19 1017.4 1017.4 0.0
03/10:30am 11.1 5.5 7.2 77 1.9 S 26 37 14 20 1017.0 1017.0 0.0
03/10:00am 10.0 3.9 6.5 79 1.6 S 28 35 15 19 1016.5 1016.5 0.0
03/09:30am 9.8 3.3 6.7 81 1.5 SSE 30 44 16 24 1016.0 1016.0 0.0
03/09:00am 9.1 2.7 6.9 86 1.0 S 30 39 16 21 1015.6 1015.5 7.8
03/08:30am 8.9 3.0 7.4 90 0.7 S 28 35 15 19 1015.1 1015.2 7.8
03/08:00am 8.2 1.4 6.8 91 0.6 S 32 39 17 21 1014.6 1014.6 7.8
03/07:30am 7.7 0.6 6.6 93 0.5 S 33 43 18 23 1013.9 1014.0 7.8
03/07:00am 7.7 1.3 6.8 94 0.4 S 30 39 16 21 1013.5 1013.5 7.8
03/06:30am 7.8 1.0 7.1 95 0.3 S 32 41 17 22 1012.9 1013.0 7.8
03/06:05am 8.0 1.7 7.4 96 0.3 S 30 50 16 27 1012.5 1012.6 7.8
03/06:00am 7.8 2.2 7.2 96 0.3 S 26 35 14 19 1012.4 1012.4 7.8
03/05:42am 8.2 2.4 7.8 97 0.2 S 28 46 15 25 1012.2 1012.3 7.8
03/05:30am 7.8 1.5 7.4 97 0.2 S 30 43 16 23 1012.0 1012.1 7.8
03/05:00am 8.2 2.4 7.9 98 0.1 S 28 37 15 20 1011.6 1011.6 7.8
03/04:30am 8.3 2.9 8.2 99 0.0 S 26 35 14 19 1011.2 1011.3 7.8
03/04:00am 8.5 3.6 8.4 99 0.0 S 24 32 13 17 1011.0 1011.0 7.8
03/03:30am 8.3 5.4 8.2 99 0.0 SW 13 17 7 9 1010.9 1011.0 7.8
03/03:00am 7.9 5.7 7.8 99 0.0 SSW 9 13 5 7 1010.7 1010.7 7.2
03/02:30am 7.9 5.7 7.8 99 0.0 SSW 9 13 5 7 1010.9 1011.0 7.2
03/02:00am 7.6 3.4 7.5 99 0.0 SSW 19 26 10 14 1011.1 1011.1 6.8
03/01:30am 7.7 3.3 7.6 99 0.0 SSW 20 30 11 16 1011.0 1011.1 6.8
03/01:00am 7.6 2.5 7.5 99 0.0 SSW 24 37 13 20 1010.8 1010.8 6.4
03/12:30am 8.3 4.3 8.2 99 0.0 SSW 19 28 10 15 1010.4 1010.5 5.4
03/12:00am 8.2 3.2 7.9 98 0.1 SSW 24 32 13 17 1010.2 1010.2 4.8
 
Date/Time
EST
Temp
°C
App
Temp
°C
Dew
Point
Rel
Hum
%
Delta-T
°C
Wind Press
QNH
hPa
Press
MSL
hPa
Rain
since 9 am
mm
Dir
 
Spd
km/h
Gust
km/h
Spd
kts
Gust
kts
02/11:30pm 8.8 3.9 8.5 98 0.1 SSW 24 33 13 18 1009.9 1010.0 3.6
02/11:00pm 9.4 5.4 8.9 97 0.2 WNW 20 30 11 16 1009.9 1009.9 2.0
02/10:30pm 9.4 5.6 8.9 97 0.2 NNW 19 22 10 12 1009.5 1009.6 1.8
02/10:00pm 9.0 5.8 8.4 96 0.3 NNW 15 19 8 10 1009.5 1009.5 1.6
02/09:30pm 8.6 5.7 8.0 96 0.3 N 13 15 7 8 1009.5 1009.6 1.6
02/09:00pm 8.6 5.6 7.8 95 0.4 N 13 15 7 8 1009.3 1009.3 1.6
02/08:30pm 8.9 7.1 8.0 94 0.4 NE 7 9 4 5 1009.4 1009.5 1.4
02/08:00pm 9.0 8.6 8.1 94 0.4 CALM 0 6 0 3 1009.4 1009.5 1.0
02/07:30pm 8.9 7.1 7.8 93 0.5 E 7 9 4 5 1009.2 1009.3 1.0
02/07:00pm 8.9 6.7 7.8 93 0.5 SE 9 9 5 5 1009.1 1009.1 0.4
02/06:30pm 8.9 6.7 7.8 93 0.5 SE 9 9 5 5 1008.8 1008.9 0.4
02/06:00pm 9.0 6.8 7.8 92 0.6 SE 9 11 5 6 1008.7 1008.7 0.4
02/05:30pm 9.3 7.5 7.9 91 0.7 SE 7 9 4 5 1008.5 1008.6 0.4
02/05:00pm 9.6 7.9 8.2 91 0.7 SSE 7 9 4 5 1008.5 1008.5 0.4
02/04:30pm 9.7 7.9 8.1 90 0.8 SE 7 9 4 5 1008.7 1008.8 0.4
02/04:00pm 9.8 8.0 8.1 89 0.8 ESE 7 9 4 5 1008.7 1008.7 0.4
02/03:30pm 9.6 7.7 7.7 88 0.9 E 7 9 4 5 1008.8 1008.9 0.4
02/03:00pm 9.5 8.5 7.4 87 1.0 N 2 7 1 4 1008.9 1008.9 0.2
02/02:30pm 9.2 7.7 7.0 86 1.0 NNW 4 7 2 4 1009.2 1009.3 0.2
02/02:00pm 9.2 6.8 6.8 85 1.1 NW 9 11 5 6 1009.3 1009.3 0.2
02/01:30pm 9.1 6.2 6.7 85 1.1 NW 11 15 6 8 1009.4 1009.5 0.2
02/01:00pm 8.8 5.5 6.2 84 1.2 NW 13 17 7 9 1009.9 1009.9 0.2
02/12:30pm 8.7 4.5 5.8 82 1.3 NW 17 20 9 11 1010.5 1010.6 0.2
02/12:00pm 9.6 6.3 6.5 81 1.4 NNW 13 19 7 10 1010.8 1010.8 0.0
02/11:30am 9.9 5.6 7.2 83 1.3 NNW 19 22 10 12 1011.2 1011.3 0.0

Other Formats:

Comma delimited format used in spreadsheet applications
http://www.bom.gov.au/fwo/IDT60801/IDT60801.95961.axf

JavaScript Object Notation format (JSON) in row-major order
http://www.bom.gov.au/fwo/IDT60801/IDT60801.95961.json